Time;durP1;ratioP1;P1;durP2;ratioP2;P2;SDS_P1;SDS_P2;PMS_P1;PMS_P2;Temp;Humidity;BMP_temperature;BMP_pressure;BME280_temperature;BME280_humidity;BME280_pressure;Samples;Min_cycle;Max_cycle;Signal;HPM_P1;HPM_P2
2021/11/15 00:01:31;;;;;;;28.70;15.40;;;11.50;95.70;;;;;;5018523;28;20103;-55
2021/11/15 00:03:58;;;;;;;23.17;13.60;;;11.50;95.70;;;;;;5022238;28;20114;-55
2021/11/15 00:06:25;;;;;;;27.13;14.80;;;11.40;95.70;;;;;;5019220;28;20056;-53
2021/11/15 00:08:52;;;;;;;21.13;14.13;;;11.40;95.70;;;;;;5016314;28;20132;-55
2021/11/15 00:11:19;;;;;;;26.80;14.50;;;11.40;95.80;;;;;;5022811;28;20653;-54
2021/11/15 00:13:46;;;;;;;23.27;13.75;;;11.50;95.90;;;;;;5021709;28;20052;-54
2021/11/15 00:16:15;;;;;;;22.95;13.63;;;11.50;95.80;;;;;;5021804;28;20049;-54
2021/11/15 00:18:42;;;;;;;33.00;14.90;;;11.50;95.80;;;;;;5016035;28;20084;-54
2021/11/15 00:21:09;;;;;;;23.73;14.32;;;11.50;95.80;;;;;;5023054;28;20100;-55
2021/11/15 00:23:36;;;;;;;22.98;13.10;;;11.50;95.80;;;;;;5016296;28;20049;-55
2021/11/15 00:26:03;;;;;;;24.38;14.77;;;11.50;95.90;;;;;;5019785;28;20073;-54
2021/11/15 00:28:30;;;;;;;28.98;15.95;;;11.50;95.80;;;;;;5019295;28;20042;-54
2021/11/15 00:30:56;;;;;;;24.15;13.40;;;11.40;95.70;;;;;;5025897;28;20072;-56
2021/11/15 00:33:23;;;;;;;24.50;13.27;;;11.50;95.80;;;;;;5019246;28;20064;-58
2021/11/15 00:35:50;;;;;;;23.77;13.30;;;11.50;95.80;;;;;;5023961;28;20397;-59
2021/11/15 00:38:19;;;;;;;25.73;13.55;;;11.50;95.80;;;;;;5026618;28;20081;-58
2021/11/15 00:40:46;;;;;;;24.83;13.70;;;11.50;95.70;;;;;;5018348;28;20504;-59
2021/11/15 00:43:13;;;;;;;21.33;12.60;;;11.50;95.70;;;;;;5023854;28;20083;-59
2021/11/15 00:45:40;;;;;;;23.95;13.82;;;11.60;95.70;;;;;;5024518;28;20137;-59
2021/11/15 00:48:07;;;;;;;25.25;12.63;;;11.50;95.70;;;;;;5026231;28;20140;-59
2021/11/15 00:50:33;;;;;;;25.30;13.13;;;11.50;95.70;;;;;;5025423;28;20484;-58
2021/11/15 00:53:00;;;;;;;21.58;12.40;;;11.40;95.70;;;;;;5023203;28;20049;-58
2021/11/15 00:55:28;;;;;;;22.23;13.65;;;11.50;95.80;;;;;;5027985;28;20049;-60
2021/11/15 00:57:55;;;;;;;27.10;13.63;;;11.50;95.80;;;;;;5027855;28;20099;-60
2021/11/15 01:00:25;;;;;;;23.70;12.90;;;11.50;95.80;;;;;;5026860;28;20053;-58
2021/11/15 01:02:53;;;;;;;21.42;12.10;;;11.50;95.80;;;;;;5023341;28;20132;-59
2021/11/15 01:05:20;;;;;;;19.40;12.30;;;11.60;95.90;;;;;;5028917;28;20049;-60
2021/11/15 01:07:46;;;;;;;24.33;12.55;;;11.50;95.80;;;;;;5024120;28;20080;-57
2021/11/15 01:10:14;;;;;;;22.52;11.80;;;11.50;95.80;;;;;;5025694;28;20107;-59
2021/11/15 01:12:41;;;;;;;26.40;12.90;;;11.50;95.80;;;;;;5023964;28;20099;-58
2021/11/15 01:15:10;;;;;;;18.65;11.52;;;11.50;95.80;;;;;;5029938;28;20137;-58
2021/11/15 01:17:37;;;;;;;18.83;10.90;;;11.50;95.80;;;;;;5021490;28;20073;-59
2021/11/15 01:20:05;;;;;;;21.08;11.73;;;11.50;95.80;;;;;;5021896;28;20128;-58
2021/11/15 01:22:31;;;;;;;19.90;11.20;;;11.50;95.70;;;;;;5026710;28;20128;-58
2021/11/15 01:24:58;;;;;;;19.60;11.85;;;11.50;95.80;;;;;;5028453;28;20077;-59
2021/11/15 01:27:25;;;;;;;19.60;10.77;;;11.50;95.80;;;;;;5023556;28;20076;-59
2021/11/15 01:29:52;;;;;;;17.75;9.93;;;11.50;95.80;;;;;;5029526;28;20081;-60
2021/11/15 01:32:19;;;;;;;20.20;10.27;;;11.50;95.80;;;;;;5022227;28;20049;-59
2021/11/15 01:34:46;;;;;;;21.60;11.15;;;11.50;95.70;;;;;;5026690;28;20140;-60
2021/11/15 01:37:12;;;;;;;18.85;9.65;;;11.50;95.70;;;;;;5019645;28;20512;-59
2021/11/15 01:39:41;;;;;;;20.38;9.20;;;11.50;95.80;;;;;;5018895;28;20096;-59
2021/11/15 01:42:08;;;;;;;16.55;9.45;;;11.50;95.80;;;;;;5025341;28;20076;-59
2021/11/15 01:44:35;;;;;;;16.27;8.98;;;11.50;95.70;;;;;;5020237;28;20468;-59
2021/11/15 01:47:03;;;;;;;16.50;8.82;;;11.50;95.70;;;;;;5027773;28;20116;-59
2021/11/15 01:49:29;;;;;;;18.38;9.90;;;11.50;95.70;;;;;;5019231;28;20095;-59
2021/11/15 01:51:56;;;;;;;19.45;11.10;;;11.50;95.70;;;;;;5022571;28;20088;-59
2021/11/15 01:54:23;;;;;;;21.85;9.65;;;11.50;95.80;;;;;;5026796;28;20504;-59
2021/11/15 01:56:50;;;;;;;17.25;9.63;;;11.50;95.70;;;;;;5020049;28;20077;-59
2021/11/15 01:59:18;;;;;;;22.75;9.10;;;11.50;95.70;;;;;;5021575;28;20416;-59
2021/11/15 02:01:45;;;;;;;19.70;11.13;;;11.50;95.70;;;;;;5025947;28;20049;-59
2021/11/15 02:04:12;;;;;;;17.70;10.00;;;11.50;95.70;;;;;;5024632;28;20054;-59
2021/11/15 02:06:38;;;;;;;16.75;9.73;;;11.50;95.70;;;;;;5019715;28;20073;-59
2021/11/15 02:09:05;;;;;;;16.42;9.18;;;11.50;95.70;;;;;;5021579;28;20100;-59
2021/11/15 02:11:33;;;;;;;15.57;8.30;;;11.50;95.80;;;;;;5028638;28;20045;-58
2021/11/15 02:14:01;;;;;;;19.67;9.63;;;11.50;95.80;;;;;;5019394;28;20046;-58
2021/11/15 02:16:28;;;;;;;16.42;9.70;;;11.50;95.70;;;;;;5027635;28;20076;-59
2021/11/15 02:18:55;;;;;;;18.33;9.90;;;11.50;95.70;;;;;;5025641;28;20136;-58
2021/11/15 02:21:23;;;;;;;17.52;8.70;;;11.50;95.70;;;;;;5021092;28;20080;-58
2021/11/15 02:23:51;;;;;;;15.68;9.50;;;11.50;95.70;;;;;;5028298;28;20045;-58
2021/11/15 02:26:19;;;;;;;17.35;9.68;;;11.50;95.70;;;;;;5022114;28;20493;-59
2021/11/15 02:28:47;;;;;;;19.75;9.32;;;11.50;95.70;;;;;;4678636;28;9999825;-59
2021/11/15 02:31:16;;;;;;;20.38;8.98;;;11.50;95.70;;;;;;5018940;28;20049;-57
2021/11/15 02:33:46;;;;;;;17.30;9.82;;;11.50;95.70;;;;;;5028429;28;20512;-58
2021/11/15 02:36:12;;;;;;;17.05;9.68;;;11.50;95.70;;;;;;5019249;28;20149;-58
2021/11/15 02:38:39;;;;;;;14.57;8.93;;;11.50;95.60;;;;;;5028217;28;20053;-59
2021/11/15 02:41:06;;;;;;;18.23;9.38;;;11.50;95.70;;;;;;5027724;28;20103;-59
2021/11/15 02:43:33;;;;;;;19.58;9.25;;;11.50;95.60;;;;;;5021402;28;20042;-58
2021/11/15 02:46:00;;;;;;;17.52;9.30;;;11.50;95.70;;;;;;5027583;28;20465;-61
2021/11/15 02:48:27;;;;;;;22.35;9.18;;;11.50;95.70;;;;;;5027971;28;20436;-58
2021/11/15 02:50:54;;;;;;;14.57;9.95;;;11.50;95.70;;;;;;5020730;28;20076;-58
2021/11/15 02:53:21;;;;;;;18.10;9.18;;;11.50;95.60;;;;;;5028326;28;20095;-58
2021/11/15 02:55:48;;;;;;;17.25;8.88;;;11.40;95.70;;;;;;5021647;28;20449;-59
2021/11/15 02:58:15;;;;;;;17.83;9.50;;;11.50;95.70;;;;;;5027550;28;20050;-59
2021/11/15 03:00:44;;;;;;;17.90;9.25;;;11.50;95.70;;;;;;5026419;28;20077;-57
2021/11/15 03:03:11;;;;;;;14.38;8.57;;;11.40;95.70;;;;;;5018226;28;20077;-58
2021/11/15 03:05:40;;;;;;;14.95;8.23;;;11.40;95.80;;;;;;5027795;28;20076;-59
2021/11/15 03:08:07;;;;;;;14.93;9.10;;;11.40;95.80;;;;;;5027461;28;20488;-59
2021/11/15 03:10:35;;;;;;;16.42;9.15;;;11.40;95.70;;;;;;5027259;28;20566;-59
2021/11/15 03:13:03;;;;;;;16.05;9.10;;;11.40;95.70;;;;;;5027434;28;20076;-58
2021/11/15 03:15:33;;;;;;;20.15;9.65;;;11.50;95.70;;;;;;5026348;28;20080;-57
2021/11/15 03:18:04;;;;;;;20.13;9.88;;;11.40;95.70;;;;;;5019887;28;20046;-57
2021/11/15 03:20:38;;;;;;;17.55;8.82;;;11.40;95.60;;;;;;5027189;28;20153;-58
2021/11/15 03:23:11;;;;;;;18.23;8.05;;;11.40;95.70;;;;;;5013289;28;20113;-59
2021/11/15 03:25:38;;;;;;;14.15;9.32;;;11.40;95.60;;;;;;5027292;28;20045;-57
2021/11/15 03:28:05;;;;;;;14.55;8.65;;;11.40;95.90;;;;;;5019276;28;20134;-58
2021/11/15 03:30:31;;;;;;;24.13;8.65;;;11.40;95.60;;;;;;5026939;28;20049;-57
2021/11/15 03:32:59;;;;;;;16.40;8.40;;;11.40;95.60;;;;;;5016300;28;20091;-58
2021/11/15 03:35:26;;;;;;;14.38;8.77;;;11.30;95.70;;;;;;5026167;28;20099;-58
2021/11/15 03:37:53;;;;;;;17.02;8.95;;;11.30;95.70;;;;;;5026725;28;20141;-59
2021/11/15 03:40:24;;;;;;;20.77;10.48;;;11.30;95.60;;;;;;5019668;28;20057;-58
2021/11/15 03:42:52;;;;;;;20.35;8.50;;;11.30;95.60;;;;;;5025818;28;20056;-58
2021/11/15 03:45:19;;;;;;;19.92;9.23;;;11.30;95.60;;;;;;5019299;28;20083;-59
2021/11/15 03:47:46;;;;;;;15.60;9.05;;;11.20;95.70;;;;;;5025798;28;20045;-58
2021/11/15 03:50:13;;;;;;;17.50;9.40;;;11.20;95.80;;;;;;5019510;28;20145;-56
2021/11/15 03:52:41;;;;;;;18.83;9.18;;;11.20;95.80;;;;;;5018098;28;20049;-57
2021/11/15 03:55:09;;;;;;;14.77;8.80;;;11.30;95.90;;;;;;5017190;28;20050;-62
2021/11/15 03:57:36;;;;;;;15.55;8.55;;;11.30;95.80;;;;;;5023808;28;20045;-59
2021/11/15 04:00:05;;;;;;;14.75;8.32;;;11.30;95.80;;;;;;5026942;28;20132;-57
2021/11/15 04:02:33;;;;;;;15.25;8.00;;;11.20;95.80;;;;;;5023473;28;20465;-60
2021/11/15 04:05:06;;;;;;;17.90;8.48;;;11.20;95.80;;;;;;5024001;28;20076;-59
2021/11/15 04:07:38;;;;;;;16.75;8.63;;;11.30;95.80;;;;;;5014894;28;20558;-57
2021/11/15 04:10:11;;;;;;;13.75;7.95;;;11.30;95.80;;;;;;5026698;28;20045;-59
2021/11/15 04:12:39;;;;;;;12.50;7.30;;;11.30;95.80;;;;;;5023511;28;20095;-58
2021/11/15 04:15:06;;;;;;;18.73;9.60;;;11.30;95.70;;;;;;5015859;28;20097;-58
2021/11/15 04:17:33;;;;;;;14.32;8.07;;;11.30;95.70;;;;;;5020891;28;20069;-58
2021/11/15 04:20:00;;;;;;;11.65;7.57;;;11.30;95.60;;;;;;5014882;28;20094;-59
2021/11/15 04:22:27;;;;;;;14.20;8.05;;;11.30;95.60;;;;;;5020539;28;20080;-57
2021/11/15 04:24:53;;;;;;;15.93;8.32;;;11.20;95.60;;;;;;5015314;28;20077;-59
2021/11/15 04:27:20;;;;;;;12.43;7.35;;;11.20;95.60;;;;;;5022266;28;20046;-57
2021/11/15 04:29:47;;;;;;;12.07;7.55;;;11.20;95.70;;;;;;5024841;28;20045;-58
2021/11/15 04:32:14;;;;;;;14.95;8.45;;;11.20;95.60;;;;;;5021685;28;20092;-58
2021/11/15 04:34:41;;;;;;;18.17;8.27;;;11.20;95.70;;;;;;5018356;28;20116;-57
2021/11/15 04:37:08;;;;;;;13.68;7.78;;;11.20;95.70;;;;;;5020601;28;20080;-58
2021/11/15 04:39:34;;;;;;;14.60;8.15;;;11.20;95.70;;;;;;5020669;28;20081;-58
2021/11/15 04:42:01;;;;;;;16.52;8.55;;;11.30;95.70;;;;;;5025327;28;20264;-57
2021/11/15 04:44:28;;;;;;;14.40;7.85;;;11.20;95.60;;;;;;5020358;28;20567;-58
2021/11/15 04:46:55;;;;;;;16.50;8.75;;;11.20;95.60;;;;;;5019517;28;20046;-58
2021/11/15 04:49:22;;;;;;;15.15;8.30;;;11.20;95.70;;;;;;5026188;28;20092;-58
2021/11/15 04:51:49;;;;;;;12.93;8.15;;;11.10;95.70;;;;;;5015143;28;20099;-58
2021/11/15 04:54:15;;;;;;;13.98;7.75;;;11.10;95.70;;;;;;5028395;28;20152;-56
2021/11/15 04:56:42;;;;;;;19.50;9.57;;;11.10;95.70;;;;;;5028792;28;20084;-58
2021/11/15 04:59:09;;;;;;;20.02;8.48;;;11.10;95.80;;;;;;5019204;28;20050;-58
2021/11/15 05:01:36;;;;;;;13.50;7.82;;;11.10;95.70;;;;;;5027537;28;20049;-59
2021/11/15 05:04:03;;;;;;;16.20;8.60;;;11.10;95.80;;;;;;5019092;28;20046;-58
2021/11/15 05:06:30;;;;;;;14.32;8.15;;;11.10;95.70;;;;;;5026455;28;20052;-58
2021/11/15 05:08:57;;;;;;;22.83;8.40;;;11.10;95.70;;;;;;5029415;28;20134;-60
2021/11/15 05:11:24;;;;;;;18.02;7.97;;;11.10;95.70;;;;;;5030121;28;20050;-58
2021/11/15 05:13:51;;;;;;;17.45;8.60;;;11.10;95.70;;;;;;5022072;28;20064;-58
2021/11/15 05:16:17;;;;;;;14.18;8.45;;;11.00;95.70;;;;;;5029945;28;20133;-58
2021/11/15 05:18:44;;;;;;;18.83;10.90;;;11.10;95.80;;;;;;5022175;28;20050;-58
2021/11/15 05:21:11;;;;;;;18.55;8.77;;;11.10;95.80;;;;;;5029646;28;20164;-59
2021/11/15 05:23:40;;;;;;;17.67;7.65;;;11.10;95.70;;;;;;5022302;28;20069;-59
2021/11/15 05:26:08;;;;;;;13.60;7.80;;;11.10;95.70;;;;;;5029398;28;20100;-60
2021/11/15 05:28:34;;;;;;;19.33;9.15;;;11.10;95.70;;;;;;5025122;28;20042;-58
2021/11/15 05:31:01;;;;;;;15.25;7.60;;;11.10;95.70;;;;;;5019701;28;20046;-58
2021/11/15 05:33:28;;;;;;;15.73;7.78;;;11.20;95.70;;;;;;5022079;28;20041;-58
2021/11/15 05:35:55;;;;;;;16.40;9.10;;;11.20;95.70;;;;;;5029445;28;20077;-59
2021/11/15 05:38:22;;;;;;;14.40;7.18;;;11.20;96.00;;;;;;5018425;28;20524;-58
2021/11/15 05:40:48;;;;;;;12.88;7.63;;;11.20;95.80;;;;;;5019092;28;20077;-58
2021/11/15 05:43:15;;;;;;;16.48;9.10;;;11.20;95.80;;;;;;5019346;28;20111;-59
2021/11/15 05:45:42;;;;;;;14.85;7.65;;;11.20;95.80;;;;;;5021624;28;20099;-59
2021/11/15 05:48:09;;;;;;;13.27;8.25;;;11.20;95.70;;;;;;5020200;28;20151;-58
2021/11/15 05:50:36;;;;;;;22.67;8.55;;;11.20;95.80;;;;;;5019434;28;20496;-59
2021/11/15 05:53:03;;;;;;;11.43;7.78;;;11.20;95.70;;;;;;5023717;28;20049;-58
2021/11/15 05:55:30;;;;;;;18.13;8.57;;;11.20;95.80;;;;;;5027554;28;20072;-57
2021/11/15 05:57:57;;;;;;;17.13;9.05;;;11.20;95.80;;;;;;5024430;28;20045;-58
2021/11/15 06:00:25;;;;;;;15.27;8.38;;;11.20;95.80;;;;;;5025469;28;20049;-58
2021/11/15 06:02:52;;;;;;;14.90;8.52;;;11.10;95.80;;;;;;5018669;28;20088;-58
2021/11/15 06:05:19;;;;;;;16.58;8.63;;;11.10;95.80;;;;;;5021634;28;20385;-57
2021/11/15 06:07:46;;;;;;;17.08;8.13;;;11.10;95.80;;;;;;5024415;28;20081;-58
2021/11/15 06:10:13;;;;;;;18.08;8.55;;;11.10;95.80;;;;;;5018634;28;20104;-58
2021/11/15 06:12:40;;;;;;;14.00;8.75;;;11.10;95.80;;;;;;5024160;28;20112;-57
2021/11/15 06:15:08;;;;;;;13.10;7.60;;;11.10;95.80;;;;;;5020776;28;20053;-59
2021/11/15 06:17:36;;;;;;;16.48;8.38;;;11.10;95.80;;;;;;5028967;28;20116;-58
2021/11/15 06:20:04;;;;;;;15.52;7.72;;;11.10;95.80;;;;;;5025634;28;20152;-58
2021/11/15 06:22:31;;;;;;;14.10;8.65;;;11.10;95.80;;;;;;5023600;28;20495;-57
2021/11/15 06:24:58;;;;;;;17.85;8.80;;;11.10;95.90;;;;;;5020255;28;20041;-58
2021/11/15 06:27:25;;;;;;;12.98;7.78;;;11.10;95.90;;;;;;5015478;28;20045;-59
2021/11/15 06:29:51;;;;;;;15.80;8.68;;;11.00;95.90;;;;;;5018851;28;20089;-59
2021/11/15 06:32:18;;;;;;;16.02;7.85;;;11.10;95.90;;;;;;5027784;28;20041;-56
2021/11/15 06:34:45;;;;;;;17.45;9.13;;;11.10;95.80;;;;;;5028140;28;20076;-56
2021/11/15 06:37:12;;;;;;;21.63;9.23;;;11.10;95.90;;;;;;5026790;28;20099;-60
2021/11/15 06:39:39;;;;;;;14.20;7.78;;;11.10;95.80;;;;;;5020254;28;20347;-59
2021/11/15 06:42:06;;;;;;;16.95;9.30;;;11.10;95.80;;;;;;5022703;28;20498;-58
2021/11/15 06:44:32;;;;;;;20.42;10.07;;;11.10;95.80;;;;;;5028407;28;20057;-57
2021/11/15 06:46:59;;;;;;;21.05;8.93;;;11.10;95.80;;;;;;5019861;28;20060;-59
2021/11/15 06:49:27;;;;;;;14.18;7.78;;;11.10;95.80;;;;;;5019088;28;20081;-59
2021/11/15 06:51:53;;;;;;;17.30;8.63;;;11.20;95.90;;;;;;5019936;28;20049;-59
2021/11/15 06:54:21;;;;;;;17.52;8.57;;;11.20;95.90;;;;;;5020698;28;20072;-58
2021/11/15 06:56:48;;;;;;;17.90;8.73;;;11.10;95.80;;;;;;5019873;28;20119;-59
2021/11/15 06:59:15;;;;;;;14.18;8.07;;;11.10;95.80;;;;;;5025847;28;20053;-59
2021/11/15 07:01:41;;;;;;;17.85;9.13;;;11.10;95.80;;;;;;5017753;28;20092;-60
2021/11/15 07:04:09;;;;;;;16.20;7.68;;;11.10;95.80;;;;;;5023519;28;20092;-56
2021/11/15 07:06:37;;;;;;;17.25;8.77;;;11.10;95.80;;;;;;5026391;28;20111;-58
2021/11/15 07:09:04;;;;;;;14.45;7.70;;;11.10;95.80;;;;;;5025619;28;20046;-58
2021/11/15 07:11:31;;;;;;;23.25;10.88;;;11.10;95.80;;;;;;5026938;28;20103;-58
2021/11/15 07:13:58;;;;;;;16.33;8.52;;;11.10;95.70;;;;;;5021652;28;20049;-58
2021/11/15 07:16:28;;;;;;;17.63;9.35;;;11.20;95.80;;;;;;5026730;28;20084;-58
2021/11/15 07:18:55;;;;;;;16.35;9.93;;;11.20;95.80;;;;;;5025982;28;20072;-59
2021/11/15 07:21:22;;;;;;;16.67;9.13;;;11.10;95.70;;;;;;5026365;28;20679;-57
2021/11/15 07:23:48;;;;;;;14.45;8.55;;;11.20;95.80;;;;;;5026223;28;20049;-58
2021/11/15 07:26:16;;;;;;;14.43;9.38;;;11.10;95.70;;;;;;5019500;28;20060;-59
2021/11/15 07:28:46;;;;;;;19.02;9.73;;;11.20;95.80;;;;;;5019262;28;20126;-59
2021/11/15 07:31:13;;;;;;;17.00;9.10;;;11.20;95.80;;;;;;5017354;28;20115;-58
2021/11/15 07:33:40;;;;;;;25.58;9.05;;;11.10;96.00;;;;;;5023569;28;20052;-56
2021/11/15 07:36:07;;;;;;;14.55;7.93;;;11.20;95.70;;;;;;5016645;28;20058;-59
2021/11/15 07:38:34;;;;;;;15.20;8.68;;;11.10;95.70;;;;;;5021187;28;20137;-59
2021/11/15 07:41:05;;;;;;;20.98;9.93;;;11.10;95.60;;;;;;5019332;28;20066;-56
2021/11/15 07:43:34;;;;;;;25.33;10.70;;;11.10;95.80;;;;;;5016648;28;20497;-52
2021/11/15 07:46:01;;;;;;;15.57;8.73;;;11.20;95.80;;;;;;5026299;28;20084;-55
2021/11/15 07:48:29;;;;;;;21.92;9.15;;;11.10;95.70;;;;;;5019916;28;20484;-52
2021/11/15 07:50:56;;;;;;;18.77;8.93;;;11.20;95.80;;;;;;5026074;28;20111;-60
2021/11/15 07:53:24;;;;;;;16.25;9.10;;;11.20;95.70;;;;;;5018612;28;20049;-52
2021/11/15 07:55:51;;;;;;;14.77;8.82;;;11.20;95.70;;;;;;5025219;28;20053;-53
2021/11/15 07:58:20;;;;;;;22.23;9.23;;;11.20;95.60;;;;;;5009579;28;20452;-56
2021/11/15 08:00:48;;;;;;;18.10;9.35;;;11.20;95.60;;;;;;5003848;28;20037;-56
2021/11/15 08:03:15;;;;;;;16.67;9.02;;;11.20;95.90;;;;;;5022385;28;20080;-52
2021/11/15 08:05:42;;;;;;;15.82;8.93;;;11.20;95.70;;;;;;5028848;28;20151;-54
2021/11/15 08:08:09;;;;;;;19.02;9.10;;;11.20;95.60;;;;;;5021716;28;20167;-54
2021/11/15 08:10:36;;;;;;;14.20;9.23;;;11.30;95.60;;;;;;5029716;28;20053;-54
2021/11/15 08:13:02;;;;;;;21.08;9.90;;;11.30;95.60;;;;;;5021849;28;20298;-51
2021/11/15 08:15:29;;;;;;;19.13;8.82;;;11.30;95.60;;;;;;5026429;28;20081;-53
2021/11/15 08:17:57;;;;;;;15.70;8.73;;;11.30;95.60;;;;;;5026772;28;20099;-54
2021/11/15 08:20:30;;;;;;;15.77;7.78;;;11.30;95.50;;;;;;5021397;28;20776;-55
2021/11/15 08:22:59;;;;;;;15.75;7.90;;;11.30;95.50;;;;;;5029751;28;20073;-55
2021/11/15 08:25:57;;;;;;;17.35;9.07;;;11.30;95.50;;;;;;5019913;28;20045;-55
2021/11/15 08:28:27;;;;;;;22.55;9.77;;;11.30;95.40;;;;;;5018474;28;20046;-56
2021/11/15 08:30:54;;;;;;;19.63;9.05;;;11.30;95.50;;;;;;5025044;28;20404;-57
2021/11/15 08:33:21;;;;;;;21.10;8.57;;;11.40;95.50;;;;;;5016130;28;20096;-56
2021/11/15 08:35:48;;;;;;;17.25;10.00;;;11.40;95.40;;;;;;5025078;28;20046;-56
2021/11/15 08:38:15;;;;;;;17.83;7.80;;;11.40;95.40;;;;;;5017295;28;20123;-56
2021/11/15 08:40:48;;;;;;;17.13;8.60;;;11.40;95.40;;;;;;4679103;28;10000764;-57
2021/11/15 08:43:18;;;;;;;16.17;8.75;;;11.40;95.40;;;;;;5024170;28;20367;-56
2021/11/15 08:45:45;;;;;;;17.90;9.85;;;11.40;95.20;;;;;;5008316;28;20132;-54
2021/11/15 08:48:12;;;;;;;17.15;8.77;;;11.40;95.20;;;;;;5010719;28;20072;-58
2021/11/15 08:50:38;;;;;;;13.45;8.38;;;11.40;95.10;;;;;;5012774;28;20139;-56
2021/11/15 08:53:05;;;;;;;15.27;7.72;;;11.40;95.00;;;;;;5021654;28;20088;-55
2021/11/15 08:55:32;;;;;;;13.90;8.85;;;11.40;95.00;;;;;;5013571;28;20161;-54
2021/11/15 08:57:59;;;;;;;18.00;9.52;;;11.40;95.00;;;;;;5025502;28;20076;-57
2021/11/15 09:00:27;;;;;;;17.90;8.55;;;11.40;95.10;;;;;;5025269;28;20112;-56
2021/11/15 09:02:54;;;;;;;17.27;8.85;;;11.50;95.10;;;;;;5024949;28;20152;-56
2021/11/15 09:05:21;;;;;;;14.02;7.93;;;11.50;95.10;;;;;;5025642;28;20049;-56
2021/11/15 09:07:48;;;;;;;16.05;8.38;;;11.50;94.90;;;;;;5025750;28;20145;-56
2021/11/15 09:10:16;;;;;;;12.88;7.90;;;11.50;94.90;;;;;;5016381;28;20072;-54
2021/11/15 09:12:43;;;;;;;13.52;7.72;;;11.50;94.90;;;;;;5025774;28;20087;-52
2021/11/15 09:15:12;;;;;;;15.50;8.68;;;11.50;95.00;;;;;;5025596;28;20049;-59
2021/11/15 09:17:40;;;;;;;12.52;8.02;;;11.60;94.90;;;;;;5025467;28;20042;-56
2021/11/15 09:20:08;;;;;;;12.30;7.55;;;11.50;94.80;;;;;;5022286;28;20049;-56
2021/11/15 09:22:35;;;;;;;16.85;8.73;;;11.50;94.80;;;;;;5025354;28;20079;-57
2021/11/15 09:25:03;;;;;;;18.98;8.20;;;11.60;94.90;;;;;;5024454;28;20208;-55
2021/11/15 09:27:30;;;;;;;14.88;7.72;;;11.60;94.80;;;;;;5021652;28;20451;-54
2021/11/15 09:29:59;;;;;;;16.27;7.60;;;11.60;94.80;;;;;;5018965;28;20173;-54
2021/11/15 09:32:25;;;;;;;16.70;9.05;;;11.60;94.70;;;;;;5014312;28;20384;-52
2021/11/15 09:34:52;;;;;;;23.98;8.65;;;11.60;94.70;;;;;;5022854;28;20373;-52
2021/11/15 09:37:20;;;;;;;16.58;8.73;;;11.60;94.70;;;;;;5023422;28;20088;-52
2021/11/15 09:39:48;;;;;;;16.13;8.20;;;11.60;94.90;;;;;;5021641;28;20507;-54
2021/11/15 09:42:16;;;;;;;15.50;8.43;;;11.60;94.70;;;;;;5020992;28;20136;-51
2021/11/15 09:44:43;;;;;;;16.50;8.82;;;11.60;94.70;;;;;;5021027;28;20255;-54
2021/11/15 09:47:10;;;;;;;17.08;10.00;;;11.60;94.60;;;;;;5009672;28;20571;-52
2021/11/15 09:49:37;;;;;;;19.17;10.10;;;11.60;94.70;;;;;;5023185;28;20049;-50
2021/11/15 09:52:05;;;;;;;17.60;9.55;;;11.60;94.70;;;;;;5016953;28;20534;-52
2021/11/15 09:54:32;;;;;;;17.17;8.65;;;11.70;94.60;;;;;;5022620;28;20060;-51
2021/11/15 09:56:59;;;;;;;16.83;9.05;;;11.60;94.70;;;;;;5015891;28;20087;-55
2021/11/15 09:59:28;;;;;;;15.95;10.32;;;11.60;94.40;;;;;;5022356;28;20116;-52
2021/11/15 10:01:56;;;;;;;18.88;9.27;;;11.60;94.40;;;;;;4674949;28;10000267;-52
2021/11/15 10:04:27;;;;;;;21.10;9.60;;;11.60;94.60;;;;;;5014966;28;20502;-51
2021/11/15 10:06:56;;;;;;;21.83;10.50;;;11.60;94.20;;;;;;4667771;28;10000244;-53
2021/11/15 10:09:31;;;;;;;21.73;10.65;;;11.70;94.30;;;;;;5016587;28;20049;-55
2021/11/15 10:11:59;;;;;;;17.98;10.35;;;11.60;94.00;;;;;;5018449;28;20045;-55
2021/11/15 10:14:26;;;;;;;19.88;10.10;;;11.60;94.10;;;;;;5016469;28;20096;-54
2021/11/15 10:17:00;;;;;;;17.00;10.15;;;11.60;94.20;;;;;;4658392;28;10000195;-53
2021/11/15 10:19:28;;;;;;;15.50;10.80;;;11.70;94.20;;;;;;5031851;28;20046;-53
2021/11/15 10:21:59;;;;;;;18.02;10.68;;;11.60;94.10;;;;;;5016635;28;20045;-54
2021/11/15 10:24:35;;;;;;;20.55;11.20;;;11.70;94.10;;;;;;5018907;28;20108;-54
2021/11/15 10:27:10;;;;;;;21.83;12.05;;;11.70;94.00;;;;;;5023615;28;20103;-54
2021/11/15 10:29:41;;;;;;;24.00;11.57;;;11.70;94.10;;;;;;5024190;28;20045;-52
2021/11/15 10:32:09;;;;;;;22.05;12.02;;;11.70;94.10;;;;;;5023875;28;20049;-52
2021/11/15 10:34:38;;;;;;;20.48;12.43;;;11.70;94.10;;;;;;5015248;28;20069;-55
2021/11/15 10:37:12;;;;;;;24.23;13.75;;;11.70;94.00;;;;;;5023981;28;20104;-53
2021/11/15 10:39:40;;;;;;;27.88;13.23;;;11.70;93.90;;;;;;5024278;28;20125;-54
2021/11/15 10:42:25;;;;;;;23.27;12.43;;;11.70;93.90;;;;;;5023922;28;20053;-53
2021/11/15 10:45:00;;;;;;;20.83;11.90;;;11.80;93.90;;;;;;5011643;28;20136;-51
2021/11/15 10:47:31;;;;;;;26.83;14.43;;;11.80;93.80;;;;;;5023129;28;20045;-53
2021/11/15 10:50:04;;;;;;;24.45;12.90;;;11.80;93.80;;;;;;5016024;28;20089;-53
2021/11/15 10:52:34;;;;;;;28.80;14.70;;;11.70;93.80;;;;;;5024431;28;20064;-54
2021/11/15 10:57:43;;;;;;;28.85;13.68;;;11.80;93.90;;;;;;5016799;28;20141;-54
2021/11/15 11:00:17;;;;;;;25.52;14.38;;;11.70;93.20;;;;;;5019155;28;20052;-54
2021/11/15 11:02:47;;;;;;;27.13;14.98;;;11.70;94.00;;;;;;5020495;28;20115;-53
2021/11/15 11:05:20;;;;;;;26.52;15.25;;;11.80;93.80;;;;;;5003521;28;20159;-54
2021/11/15 11:07:49;;;;;;;23.75;14.18;;;11.80;93.80;;;;;;5022676;28;20103;-52
2021/11/15 11:10:18;;;;;;;29.30;14.57;;;11.80;93.80;;;;;;5022247;28;20137;-53
2021/11/15 11:13:02;;;;;;;29.00;14.18;;;11.90;93.80;;;;;;5021917;28;20344;-51
2021/11/15 11:15:35;;;;;;;29.27;13.75;;;11.90;93.50;;;;;;5021152;28;20045;-54
2021/11/15 11:18:09;;;;;;;28.73;13.50;;;11.90;93.70;;;;;;5022446;28;20103;-51
2021/11/15 11:24:09;;;;;;;23.95;12.60;;;11.80;92.90;;;;;;5021480;28;20018;-52
2021/11/15 11:26:19;;;;;;;24.65;13.75;;;11.80;93.50;;;;;;5019894;28;20069;-53
2021/11/15 11:28:53;;;;;;;29.52;14.25;;;11.90;93.50;;;;;;5020715;28;20085;-55
2021/11/15 11:31:21;;;;;;;26.50;14.07;;;11.90;93.20;;;;;;5020465;28;20191;-54
2021/11/15 11:33:48;;;;;;;21.48;12.50;;;11.90;93.40;;;;;;5021967;28;20041;-51
2021/11/15 11:36:15;;;;;;;25.58;13.25;;;11.90;93.40;;;;;;5018689;28;20521;-54
2021/11/15 11:38:43;;;;;;;23.70;12.60;;;12.00;93.40;;;;;;5020901;28;20053;-55
2021/11/15 11:41:10;;;;;;;19.92;12.30;;;12.00;93.40;;;;;;5020862;28;20157;-55
2021/11/15 11:43:43;;;;;;;26.48;12.77;;;12.00;93.60;;;;;;5022936;28;20077;-54
2021/11/15 11:46:13;;;;;;;28.33;13.75;;;12.00;93.30;;;;;;5021786;28;20072;-51
2021/11/15 11:48:41;;;;;;;20.85;12.23;;;12.00;93.30;;;;;;5035585;28;20045;-58
2021/11/15 11:51:08;;;;;;;22.88;13.13;;;11.90;93.20;;;;;;5022822;28;20057;-53
2021/11/15 11:53:36;;;;;;;24.75;13.57;;;11.90;93.20;;;;;;5022097;28;20073;-58
2021/11/15 11:56:16;;;;;;;24.23;13.65;;;11.90;93.30;;;;;;5016355;28;20140;-55
2021/11/15 11:58:46;;;;;;;26.88;14.70;;;11.90;93.10;;;;;;5021896;28;20045;-52
2021/11/15 12:01:21;;;;;;;24.25;14.07;;;12.00;93.30;;;;;;5023600;28;20558;-55
2021/11/15 12:04:14;;;;;;;23.50;12.70;;;12.00;93.10;;;;;;5019527;28;20079;-54
2021/11/15 12:06:40;;;;;;;22.60;14.18;;;12.00;92.60;;;;;;5014785;28;20050;-52
2021/11/15 12:09:07;;;;;;;26.10;13.57;;;12.00;93.20;;;;;;5018795;28;20116;-55
2021/11/15 12:11:39;;;;;;;26.15;14.38;;;12.00;93.10;;;;;;5023283;28;20536;-54
2021/11/15 12:14:07;;;;;;;26.25;14.15;;;12.00;93.20;;;;;;5021208;28;20100;-52
2021/11/15 12:16:53;;;;;;;22.08;14.00;;;12.00;93.10;;;;;;5015135;28;20435;-54
2021/11/15 12:19:28;;;;;;;24.33;14.57;;;12.00;92.20;;;;;;5019780;28;20591;-51
2021/11/15 12:22:08;;;;;;;28.55;14.18;;;12.00;93.00;;;;;;5015865;28;20107;-55
2021/11/15 12:24:35;;;;;;;25.70;15.25;;;12.10;92.50;;;;;;5023342;28;20508;-55
2021/11/15 12:27:07;;;;;;;21.70;14.70;;;12.10;92.90;;;;;;5015096;28;20504;-55
2021/11/15 12:29:35;;;;;;;22.27;13.73;;;12.10;92.90;;;;;;5022207;28;20140;-53
2021/11/15 12:32:08;;;;;;;26.80;14.00;;;12.10;93.00;;;;;;5022194;28;20045;-54
2021/11/15 12:34:38;;;;;;;25.40;14.45;;;12.10;93.00;;;;;;5022775;28;20111;-53
2021/11/15 12:37:07;;;;;;;26.05;13.07;;;12.10;93.00;;;;;;5022723;28;20512;-57
2021/11/15 12:39:43;;;;;;;26.35;14.55;;;12.10;93.00;;;;;;5019301;28;20049;-54
2021/11/15 12:42:23;;;;;;;26.40;14.52;;;12.10;92.90;;;;;;5021402;28;20519;-53
2021/11/15 12:45:23;;;;;;;29.23;14.90;;;12.10;92.70;;;;;;5018094;28;20053;-53